Startpagina
METAR-TAF:

METAR-TAF

Vliegvelden :

Militair vliegvled

Landivisiau, Frankrijk

breedte: 48-31N, lengte: 004-09W, hoogte: 106 m

Actueel weer

Dit bericht is 19 minuten geleden gemaakt, om 05:30 UTC
Wind 6 kt uit het noordwesten
Temperatuur 10°C
Vochtigheid 82%
Druk 1007 hPa
Zicht 10 km of meer
Weinig wolken op 2800 ft
Verspreide wolken op 4700 ft

METAR: LFRJ 060530Z AUTO 31006KT 9999 FEW028 SCT047 10/07 Q1007

Tijdstip: 07:49 (05:49 UTC)

Verwachting

Dit bericht is 15 uur en het 49 minuten geleden gemaakt, om 14:00 UTC
Verwachting geldig van 05 om 15 UTC tot 05 om 24 UTC
Wind 13 kt uit het westnoordwesten
Zicht 10 km of meer
Gebroken wolken op 2000 ft
Tijdelijke
van 05 om 15 UTC tot 05 om 16 UTC
Wind 13 kt uit het westnoordwesten met uitschieters tot 23 kt
Tijdelijke
van 05 om 15 UTC tot 05 om 22 UTC
Zicht: 4000 m
Gebroken wolken op 800 ft
regen, motregen

TAF: LFRJ 051400Z 0515/0524 30013KT 9999 BKN020 TEMPO 0515/0516 30013G23KT TEMPO 0515/0522 4000 RADZ BKN008

Waarnemingen en weersverwachtingen van meer dan 4000 vliegvelden (METAR en TAF).

De beschikbare stations zijn de gele en rode punten op de kaart.

Ga met uw muis naar het station om de naam te zien.

Klik dan om waarnemingen en weersverwachtingen te zien.

kaart wijzigen: klik op de groene knoppen met een zwart kruis om in te zoomen, op de groene knop met een streepje om uit te zoomen of op de groene pijlen voor aangrenzende kaarten.


METAR-TAF: